Time,TemperatureF,DewpointF,PressureIn,WindDirection,WindDirectionDegrees,WindSpeedMPH,WindSpeedGustMPH,Humidity,HourlyPrecipIn,Conditions,Clouds,dailyrainin,SoftwareType,DateUTC
2013-02-21 00:00:00,18.7,15.2,29.99,WSW,248,11.5,11.5,86,0.00,-SN,,0.00,WeatherDisplay:10.37,2013-02-21 05:00:00,
2013-02-21 00:01:00,18.7,15.2,29.99,WSW,248,8.1,8.1,86,0.00,-SN,,0.00,WeatherDisplay:10.37,2013-02-21 05:01:00,
2013-02-21 00:04:00,18.7,14.9,29.99,WSW,242,8.0,12.0,85,0.00,-SN,,0.00,WeatherDisplay:10.37,2013-02-21 05:04:00,
2013-02-21 00:10:00,18.7,14.9,29.99,SW,234,10.0,12.0,85,0.00,-SN,,0.00,WeatherDisplay:10.37,2013-02-21 05:10:00,
2013-02-21 00:15:00,18.7,14.9,29.99,SW,225,8.1,8.1,85,0.00,-SN,,0.00,WeatherDisplay:10.37,2013-02-21 05:15:00,
2013-02-21 00:20:00,18.9,14.9,29.99,West,270,10.4,10.4,84,0.00,-SN,,0.00,WeatherDisplay:10.37,2013-02-21 05:20:00,
2013-02-21 00:25:00,18.9,14.9,29.99,SW,225,10.4,10.4,84,0.00,-SN,,0.00,WeatherDisplay:10.37,2013-02-21 05:25:00,
2013-02-21 00:30:00,18.9,14.9,29.99,WSW,248,11.5,11.5,84,0.00,-SN,,0.00,WeatherDisplay:10.37,2013-02-21 05:30:00,
2013-02-21 00:35:00,19.0,14.4,29.99,SW,225,14.5,14.5,82,0.00,-SN,,0.00,WeatherDisplay:10.37,2013-02-21 05:35:00,
2013-02-21 00:40:00,19.2,14.0,29.99,West,270,16.1,16.1,80,0.00,-SN,,0.00,WeatherDisplay:10.37,2013-02-21 05:40:00,
2013-02-21 00:45:00,19.2,14.0,29.99,SW,225,11.5,11.5,80,0.00,-SN,,0.00,WeatherDisplay:10.37,2013-02-21 05:45:00,
2013-02-21 00:50:00,19.2,14.0,29.99,SW,225,8.3,8.3,80,0.00,-SN,,0.00,WeatherDisplay:10.37,2013-02-21 05:50:00,
2013-02-21 00:55:00,19.2,13.8,29.99,SW,225,16.1,16.1,79,0.00,-SN,,0.00,WeatherDisplay:10.37,2013-02-21 05:55:00,
2013-02-21 01:00:00,19.2,14.0,29.99,SW,225,16.1,16.1,80,0.00,-SN,,0.00,WeatherDisplay:10.37,2013-02-21 06:00:00,
2013-02-21 01:05:00,19.2,14.0,29.99,WSW,248,15.0,15.0,80,0.00,-SN,,0.00,WeatherDisplay:10.37,2013-02-21 06:05:00,
2013-02-21 01:10:00,19.2,14.0,29.99,WSW,248,15.0,15.0,80,0.00,-SN,,0.00,WeatherDisplay:10.37,2013-02-21 06:10:00,
2013-02-21 01:15:00,19.2,14.3,30.00,West,270,13.8,13.8,81,0.00,-SN,,0.00,WeatherDisplay:10.37,2013-02-21 06:15:00,
2013-02-21 01:20:00,19.0,14.4,30.00,WSW,248,15.0,15.0,82,0.00,-SN,,0.00,WeatherDisplay:10.37,2013-02-21 06:20:00,
2013-02-21 01:25:00,19.0,14.7,30.00,West,270,13.8,13.8,83,0.00,-SN,,0.00,WeatherDisplay:10.37,2013-02-21 06:25:00,
2013-02-21 01:30:00,19.0,14.7,29.99,SW,225,12.7,12.7,83,0.00,-SN,,0.00,WeatherDisplay:10.37,2013-02-21 06:30:00,
2013-02-21 01:35:00,19.0,14.7,29.99,West,270,10.4,10.4,83,0.00,-SN,,0.00,WeatherDisplay:10.37,2013-02-21 06:35:00,
2013-02-21 01:40:00,19.0,14.7,30.00,West,270,10.9,10.9,83,0.00,-SN,,0.00,WeatherDisplay:10.37,2013-02-21 06:40:00,
2013-02-21 01:45:00,19.0,15.0,30.00,SW,225,10.9,10.9,84,0.00,-SN,,0.00,WeatherDisplay:10.37,2013-02-21 06:45:00,
2013-02-21 01:50:00,19.0,15.2,30.00,SW,225,14.0,14.0,85,0.00,-SN,,0.00,WeatherDisplay:10.37,2013-02-21 06:50:00,
2013-02-21 01:55:00,18.9,15.4,30.00,SW,225,10.4,10.4,86,0.00,-SN,,0.00,WeatherDisplay:10.37,2013-02-21 06:55:00,
2013-02-21 02:00:00,18.9,15.4,30.00,West,270,9.9,9.9,86,0.00,-SN,,0.00,WeatherDisplay:10.37,2013-02-21 07:00:00,
2013-02-21 02:05:00,18.9,15.1,30.00,WSW,248,10.4,10.4,85,0.00,OVC,,0.00,WeatherDisplay:10.37,2013-02-21 07:05:00,
2013-02-21 02:10:00,18.9,15.4,30.00,West,270,10.4,10.4,86,0.00,OVC,,0.00,WeatherDisplay:10.37,2013-02-21 07:10:00,
2013-02-21 02:15:00,18.9,15.1,30.00,West,270,10.4,10.4,85,0.00,OVC,,0.00,WeatherDisplay:10.37,2013-02-21 07:15:00,
2013-02-21 02:20:00,18.9,14.6,30.00,WSW,248,16.1,16.1,83,0.00,OVC,,0.00,WeatherDisplay:10.37,2013-02-21 07:20:00,
2013-02-21 02:25:00,18.9,14.6,30.00,West,270,10.4,10.4,83,0.00,OVC,,0.00,WeatherDisplay:10.37,2013-02-21 07:25:00,
2013-02-21 02:30:00,19.0,15.0,30.00,SW,225,12.4,12.4,84,0.00,OVC,,0.00,WeatherDisplay:10.37,2013-02-21 07:30:00,
2013-02-21 02:35:00,19.0,14.7,30.00,WSW,248,10.4,10.4,83,0.00,-SN,,0.00,WeatherDisplay:10.37,2013-02-21 07:35:00,
2013-02-21 02:40:00,19.0,14.7,30.00,SW,225,9.2,9.3,83,0.00,-SN,,0.00,WeatherDisplay:10.37,2013-02-21 07:40:00,
2013-02-21 02:45:00,19.0,14.7,30.00,SW,225,9.2,9.2,83,0.00,-SN,,0.00,WeatherDisplay:10.37,2013-02-21 07:45:00,
2013-02-21 02:50:00,19.0,14.4,30.00,WSW,248,17.3,17.3,82,0.00,-SN,,0.00,WeatherDisplay:10.37,2013-02-21 07:50:00,
2013-02-21 02:55:00,19.0,14.4,30.00,WSW,248,10.4,10.4,82,0.00,-SN,,0.00,WeatherDisplay:10.37,2013-02-21 07:55:00,
2013-02-21 03:00:00,19.0,14.7,30.00,WSW,248,9.2,9.2,83,0.00,-SN,,0.00,WeatherDisplay:10.37,2013-02-21 08:00:00,
2013-02-21 03:05:00,19.0,14.7,30.00,WSW,248,10.4,10.5,83,0.00,-SN,,0.00,WeatherDisplay:10.37,2013-02-21 08:05:00,
2013-02-21 03:10:00,19.0,14.4,30.00,WSW,248,11.9,11.9,82,0.00,-SN,,0.00,WeatherDisplay:10.37,2013-02-21 08:10:00,
2013-02-21 03:15:00,19.0,14.4,30.00,WSW,248,11.5,11.5,82,0.00,-SN,,0.00,WeatherDisplay:10.37,2013-02-21 08:15:00,
2013-02-21 03:20:00,19.0,14.1,30.00,West,270,15.0,15.0,81,0.00,-SN,,0.00,WeatherDisplay:10.37,2013-02-21 08:20:00,
2013-02-21 03:25:00,18.9,14.6,30.00,WSW,248,16.0,16.0,83,0.00,-SN,,0.00,WeatherDisplay:10.37,2013-02-21 08:25:00,
2013-02-21 03:30:00,18.7,14.7,30.00,WSW,248,16.1,16.2,84,0.00,-SN,,0.00,WeatherDisplay:10.37,2013-02-21 08:30:00,
2013-02-21 03:35:00,18.7,14.9,30.00,WSW,248,13.8,13.8,85,0.00,-SN,,0.00,WeatherDisplay:10.37,2013-02-21 08:35:00,
2013-02-21 03:40:00,18.7,14.9,30.01,WSW,248,10.4,10.5,85,0.00,-SN,,0.00,WeatherDisplay:10.37,2013-02-21 08:40:00,
2013-02-21 03:45:00,18.7,14.1,30.01,SW,225,15.0,15.0,82,0.00,-SN,,0.00,WeatherDisplay:10.37,2013-02-21 08:45:00,
2013-02-21 03:50:00,18.7,13.6,30.00,SW,225,10.4,10.8,80,0.00,-SN,,0.00,WeatherDisplay:10.37,2013-02-21 08:50:00,
2013-02-21 03:55:00,18.7,13.6,30.00,WSW,248,9.2,9.2,80,0.00,-SN,,0.00,WeatherDisplay:10.37,2013-02-21 08:55:00,
2013-02-21 04:00:00,18.7,13.3,30.00,West,270,13.5,13.5,79,0.00,-SN,,0.00,WeatherDisplay:10.37,2013-02-21 09:00:00,
2013-02-21 04:05:00,18.7,13.3,30.00,SW,225,9.2,10.2,79,0.00,-SN,,0.00,WeatherDisplay:10.37,2013-02-21 09:05:00,
2013-02-21 04:10:00,18.9,13.5,30.00,WSW,248,9.2,9.2,79,0.00,-SN,,0.00,WeatherDisplay:10.37,2013-02-21 09:10:00,
2013-02-21 04:15:00,18.9,13.5,30.01,WSW,248,10.4,10.4,79,0.00,-SN,,0.00,WeatherDisplay:10.37,2013-02-21 09:15:00,
2013-02-21 04:20:00,18.9,13.2,30.01,WSW,248,10.4,10.4,78,0.00,-SN,,0.00,WeatherDisplay:10.37,2013-02-21 09:20:00,
2013-02-21 04:25:00,19.0,13.0,30.00,SW,225,11.5,11.5,77,0.00,-SN,,0.00,WeatherDisplay:10.37,2013-02-21 09:25:00,
2013-02-21 04:30:00,19.0,12.7,30.00,SW,225,12.7,12.7,76,0.00,-SN,,0.00,WeatherDisplay:10.37,2013-02-21 09:30:00,
2013-02-21 04:35:00,19.0,12.7,30.00,WSW,248,10.4,10.4,76,0.00,OVC,,0.00,WeatherDisplay:10.37,2013-02-21 09:35:00,
2013-02-21 04:40:00,19.2,12.6,30.00,SW,225,10.4,10.4,75,0.00,OVC,,0.00,WeatherDisplay:10.37,2013-02-21 09:40:00,
2013-02-21 04:45:00,19.2,12.6,30.00,SW,225,10.4,10.4,75,0.00,OVC,,0.00,WeatherDisplay:10.37,2013-02-21 09:45:00,
2013-02-21 04:50:00,19.2,12.3,30.01,SW,225,12.7,12.7,74,0.00,OVC,,0.00,WeatherDisplay:10.37,2013-02-21 09:50:00,
2013-02-21 04:55:00,19.2,12.3,30.01,SW,225,11.4,11.4,74,0.00,OVC,,0.00,WeatherDisplay:10.37,2013-02-21 09:55:00,
2013-02-21 05:00:00,19.2,12.6,30.01,SW,225,10.4,10.4,75,0.00,OVC,,0.00,WeatherDisplay:10.37,2013-02-21 10:00:00,
2013-02-21 05:05:00,19.4,12.5,30.00,West,270,11.4,12.1,74,0.00,OVC,,0.00,WeatherDisplay:10.37,2013-02-21 10:05:00,
2013-02-21 05:10:00,19.4,12.5,30.00,SW,225,13.8,13.8,74,0.00,OVC,,0.00,WeatherDisplay:10.37,2013-02-21 10:10:00,
2013-02-21 05:15:00,19.4,12.5,30.01,SW,225,11.4,11.4,74,0.00,OVC,,0.00,WeatherDisplay:10.37,2013-02-21 10:15:00,
2013-02-21 05:20:00,19.4,12.5,30.01,SW,225,12.7,12.9,74,0.00,OVC,,0.00,WeatherDisplay:10.37,2013-02-21 10:20:00,
2013-02-21 05:25:00,19.4,12.8,30.01,SW,225,10.4,10.4,75,0.00,OVC,,0.00,WeatherDisplay:10.37,2013-02-21 10:25:00,
2013-02-21 05:30:00,19.4,12.8,30.01,SW,225,11.5,11.5,75,0.00,OVC,,0.00,WeatherDisplay:10.37,2013-02-21 10:30:00,
2013-02-21 05:35:00,19.4,12.8,30.01,SW,225,17.1,17.1,75,0.00,OVC,,0.00,WeatherDisplay:10.37,2013-02-21 10:35:00,
2013-02-21 05:40:00,19.4,13.4,30.01,SW,225,11.5,11.5,77,0.00,OVC,,0.00,WeatherDisplay:10.37,2013-02-21 10:40:00,
2013-02-21 05:45:00,19.2,13.5,30.01,SSW,202,12.7,12.7,78,0.00,OVC,,0.00,WeatherDisplay:10.37,2013-02-21 10:45:00,
2013-02-21 05:50:00,19.2,13.8,30.02,WSW,248,10.4,10.4,79,0.00,OVC,,0.00,WeatherDisplay:10.37,2013-02-21 10:50:00,
2013-02-21 05:55:00,19.2,13.8,30.02,WSW,248,11.4,11.4,79,0.00,OVC,,0.00,WeatherDisplay:10.37,2013-02-21 10:55:00,
2013-02-21 06:00:00,19.2,13.8,30.02,WSW,248,15.0,15.0,79,0.00,OVC,,0.00,WeatherDisplay:10.37,2013-02-21 11:00:00,
2013-02-21 06:05:00,19.2,13.8,30.03,WSW,248,10.4,10.4,79,0.00,OVC,,0.00,WeatherDisplay:10.37,2013-02-21 11:05:00,
2013-02-21 06:10:00,19.2,13.8,30.03,SW,225,11.4,11.4,79,0.00,OVC,,0.00,WeatherDisplay:10.37,2013-02-21 11:10:00,
2013-02-21 06:15:00,19.2,13.8,30.02,SW,225,13.8,13.8,79,0.00,OVC,,0.00,WeatherDisplay:10.37,2013-02-21 11:15:00,
2013-02-21 06:20:00,19.2,13.8,30.02,WSW,248,11.5,11.5,79,0.00,OVC,,0.00,WeatherDisplay:10.37,2013-02-21 11:20:00,
2013-02-21 06:25:00,19.2,13.8,30.02,SW,225,9.2,9.2,79,0.00,OVC,,0.00,WeatherDisplay:10.37,2013-02-21 11:25:00,
2013-02-21 06:30:00,19.2,13.8,30.03,SW,225,10.4,10.4,79,0.00,OVC,,0.00,WeatherDisplay:10.37,2013-02-21 11:30:00,
2013-02-21 06:35:00,19.2,13.8,30.03,WSW,248,9.2,9.2,79,0.00,OVC,,0.00,WeatherDisplay:10.37,2013-02-21 11:35:00,
2013-02-21 06:40:00,19.2,13.8,30.03,WSW,248,15.0,15.0,79,0.00,OVC,,0.00,WeatherDisplay:10.37,2013-02-21 11:40:00,
2013-02-21 06:45:00,19.2,13.8,30.03,SW,225,15.0,15.0,79,0.00,OVC,,0.00,WeatherDisplay:10.37,2013-02-21 11:45:00,
2013-02-21 06:50:00,19.2,13.8,30.04,SW,225,12.7,12.7,79,0.00,OVC,,0.00,WeatherDisplay:10.37,2013-02-21 11:50:00,
2013-02-21 06:55:00,19.2,13.8,30.04,WSW,248,13.8,13.8,79,0.00,OVC,,0.00,WeatherDisplay:10.37,2013-02-21 11:55:00,
2013-02-21 07:00:00,19.2,14.0,30.04,West,270,13.8,13.8,80,0.00,OVC,,0.00,WeatherDisplay:10.37,2013-02-21 12:00:00,
2013-02-21 07:05:00,19.2,14.0,30.04,SW,225,12.4,12.4,80,0.00,OVC,,0.00,WeatherDisplay:10.37,2013-02-21 12:05:00,
2013-02-21 07:10:00,19.2,14.3,30.04,West,270,13.8,13.8,81,0.00,OVC,,0.00,WeatherDisplay:10.37,2013-02-21 12:10:00,
2013-02-21 07:15:00,19.2,14.6,30.05,WSW,248,9.4,9.4,82,0.00,OVC,,0.00,WeatherDisplay:10.37,2013-02-21 12:15:00,
2013-02-21 07:20:00,19.0,14.4,30.05,West,270,9.9,9.9,82,0.00,OVC,,0.00,WeatherDisplay:10.37,2013-02-21 12:20:00,
2013-02-21 07:25:00,19.0,14.4,30.05,WSW,248,10.4,10.6,82,0.00,OVC,,0.00,WeatherDisplay:10.37,2013-02-21 12:25:00,
2013-02-21 07:30:00,19.0,14.7,30.05,SW,225,8.1,8.1,83,0.00,OVC,,0.00,WeatherDisplay:10.37,2013-02-21 12:30:00,
2013-02-21 07:35:00,18.9,14.6,30.05,SW,225,10.4,10.4,83,0.00,OVC,,0.00,WeatherDisplay:10.37,2013-02-21 12:35:00,
2013-02-21 07:40:00,18.9,14.6,30.05,SW,225,8.3,8.3,83,0.00,OVC,,0.00,WeatherDisplay:10.37,2013-02-21 12:40:00,
2013-02-21 07:45:00,18.9,14.9,30.05,West,270,11.5,11.5,84,0.00,OVC,,0.00,WeatherDisplay:10.37,2013-02-21 12:45:00,
2013-02-21 07:50:00,19.0,15.0,30.06,SW,225,8.3,8.3,84,0.00,OVC,,0.00,WeatherDisplay:10.37,2013-02-21 12:50:00,
2013-02-21 07:55:00,19.0,15.0,30.06,SW,225,10.4,10.4,84,0.00,OVC,,0.00,WeatherDisplay:10.37,2013-02-21 12:55:00,
2013-02-21 08:00:00,19.0,15.0,30.06,SW,225,10.4,10.4,84,0.00,OVC,,0.00,WeatherDisplay:10.37,2013-02-21 13:00:00,
2013-02-21 08:05:00,19.2,14.9,30.07,SW,225,10.4,10.4,83,0.00,OVC,,0.00,WeatherDisplay:10.37,2013-02-21 13:05:00,
2013-02-21 08:10:00,19.2,15.2,30.07,SW,225,10.4,10.4,84,0.00,OVC,,0.00,WeatherDisplay:10.37,2013-02-21 13:10:00,
2013-02-21 08:15:00,19.4,15.4,30.08,SSW,202,11.5,11.6,84,0.00,OVC,,0.00,WeatherDisplay:10.37,2013-02-21 13:15:00,
2013-02-21 08:20:00,19.4,15.4,30.08,WSW,248,10.4,10.4,84,0.00,OVC,,0.00,WeatherDisplay:10.37,2013-02-21 13:20:00,
2013-02-21 08:25:00,19.6,15.8,30.08,SW,225,10.4,10.4,85,0.00,OVC,,0.00,WeatherDisplay:10.37,2013-02-21 13:25:00,
2013-02-21 08:30:00,19.6,15.8,30.08,SW,225,9.9,9.9,85,0.00,OVC,,0.00,WeatherDisplay:10.37,2013-02-21 13:30:00,
2013-02-21 08:35:00,19.9,16.4,30.08,SW,225,9.9,10.0,86,0.00,-SN,,0.00,WeatherDisplay:10.37,2013-02-21 13:35:00,
2013-02-21 08:40:00,19.9,16.1,30.09,WSW,248,10.4,10.4,85,0.00,-SN,,0.00,WeatherDisplay:10.37,2013-02-21 13:40:00,
2013-02-21 08:45:00,19.9,16.1,30.09,West,270,12.7,12.7,85,0.00,-SN,,0.00,WeatherDisplay:10.37,2013-02-21 13:45:00,
2013-02-21 08:50:00,20.3,16.8,30.09,West,270,10.4,10.4,86,0.00,-SN,,0.00,WeatherDisplay:10.37,2013-02-21 13:50:00,
2013-02-21 08:55:00,20.1,16.0,30.09,West,270,15.0,15.0,84,0.00,-SN,,0.00,WeatherDisplay:10.37,2013-02-21 13:55:00,
2013-02-21 09:00:00,20.1,16.0,30.09,SW,225,11.5,11.5,84,0.00,-SN,,0.00,WeatherDisplay:10.37,2013-02-21 14:00:00,
2013-02-21 09:05:00,20.5,16.4,30.09,WSW,248,10.4,10.4,84,0.00,-SN,,0.00,WeatherDisplay:10.37,2013-02-21 14:05:00,
2013-02-21 09:10:00,20.7,16.4,30.09,West,270,15.0,15.0,83,0.00,-SN,,0.00,WeatherDisplay:10.37,2013-02-21 14:10:00,
2013-02-21 09:15:00,20.7,16.1,30.09,SW,225,10.4,10.4,82,0.00,-SN,,0.00,WeatherDisplay:10.37,2013-02-21 14:15:00,
2013-02-21 09:20:00,20.8,16.5,30.09,WSW,248,12.7,12.7,83,0.00,-SN,,0.00,WeatherDisplay:10.37,2013-02-21 14:20:00,
2013-02-21 09:25:00,21.2,16.6,30.09,WSW,248,9.2,9.2,82,0.00,-SN,,0.00,WeatherDisplay:10.37,2013-02-21 14:25:00,
2013-02-21 09:30:00,21.0,16.1,30.09,West,270,13.8,13.8,81,0.00,-SN,,0.00,WeatherDisplay:10.37,2013-02-21 14:30:00,
2013-02-21 09:35:00,21.0,16.1,30.09,WSW,248,16.1,16.1,81,0.00,-SN,,0.00,WeatherDisplay:10.37,2013-02-21 14:35:00,
2013-02-21 09:40:00,21.4,16.2,30.10,WSW,248,16.1,16.1,80,0.00,-SN,,0.00,WeatherDisplay:10.37,2013-02-21 14:40:00,
2013-02-21 09:45:00,21.6,16.4,30.10,WSW,248,10.4,10.4,80,0.00,-SN,,0.00,WeatherDisplay:10.37,2013-02-21 14:45:00,
2013-02-21 09:50:00,21.4,16.2,30.10,WSW,248,10.4,10.4,80,0.00,-SN,,0.00,WeatherDisplay:10.37,2013-02-21 14:50:00,
2013-02-21 09:55:00,21.6,16.1,30.10,WSW,248,13.8,13.8,79,0.00,-SN,,0.00,WeatherDisplay:10.37,2013-02-21 14:55:00,
2013-02-21 10:00:00,21.2,15.7,30.10,WSW,248,18.6,18.6,79,0.00,-SN,,0.00,WeatherDisplay:10.37,2013-02-21 15:00:00,
2013-02-21 10:05:00,21.0,15.5,30.10,West,270,18.4,18.4,79,0.00,-SN,,0.00,WeatherDisplay:10.37,2013-02-21 15:05:00,
2013-02-21 10:10:00,21.0,16.4,30.10,SW,225,10.4,10.4,82,0.00,-SN,,0.00,WeatherDisplay:10.37,2013-02-21 15:10:00,
2013-02-21 10:15:00,21.2,15.7,30.09,WSW,248,15.0,15.0,79,0.00,-SN,,0.00,WeatherDisplay:10.37,2013-02-21 15:15:00,
2013-02-21 10:20:00,21.7,15.0,30.09,WSW,248,15.0,15.0,75,0.00,-SN,,0.00,WeatherDisplay:10.37,2013-02-21 15:20:00,
2013-02-21 10:25:00,22.1,15.1,30.09,SW,225,15.0,15.0,74,0.00,-SN,,0.00,WeatherDisplay:10.37,2013-02-21 15:25:00,
2013-02-21 10:30:00,21.9,14.9,30.09,WSW,248,15.0,15.0,74,0.00,-SN,,0.00,WeatherDisplay:10.37,2013-02-21 15:30:00,
2013-02-21 10:35:00,21.9,14.9,30.09,WSW,248,13.8,13.8,74,0.00,-SN,,0.00,WeatherDisplay:10.37,2013-02-21 15:35:00,
2013-02-21 10:40:00,22.6,15.2,30.08,West,270,13.5,13.5,73,0.00,-SN,,0.00,WeatherDisplay:10.37,2013-02-21 15:40:00,
2013-02-21 10:45:00,22.6,14.9,30.08,West,270,16.1,16.1,72,0.00,-SN,,0.00,WeatherDisplay:10.37,2013-02-21 15:45:00,
2013-02-21 10:50:00,23.2,15.2,30.08,WSW,248,10.4,10.4,71,0.00,-SN,,0.00,WeatherDisplay:10.37,2013-02-21 15:50:00,
2013-02-21 10:55:00,23.0,15.0,30.08,SW,225,11.5,11.5,71,0.00,-SN,,0.00,WeatherDisplay:10.37,2013-02-21 15:55:00,
2013-02-21 11:00:00,23.2,15.2,30.08,SSW,202,14.0,14.0,71,0.00,-SN,,0.00,WeatherDisplay:10.37,2013-02-21 16:00:00,
2013-02-21 11:05:00,22.8,15.1,30.08,WSW,248,13.0,13.0,72,0.00,-SN,,0.00,WeatherDisplay:10.37,2013-02-21 16:05:00,
2013-02-21 11:10:00,22.8,15.1,30.08,WSW,248,13.0,13.0,72,0.00,-SN,,0.00,WeatherDisplay:10.37,2013-02-21 16:10:00,
2013-02-21 11:15:00,23.4,15.7,30.09,West,270,12.7,12.7,72,0.00,-SN,,0.00,WeatherDisplay:10.37,2013-02-21 16:15:00,
2013-02-21 11:20:00,22.6,15.2,30.09,WSW,248,19.6,19.6,73,0.00,-SN,,0.00,WeatherDisplay:10.37,2013-02-21 16:20:00,
2013-02-21 11:25:00,23.0,15.9,30.09,WSW,248,16.1,16.1,74,0.00,-SN,,0.00,WeatherDisplay:10.37,2013-02-21 16:25:00,
2013-02-21 11:30:00,23.0,15.3,30.09,West,270,16.1,16.1,72,0.00,-SN,,0.00,WeatherDisplay:10.37,2013-02-21 16:30:00,
2013-02-21 11:35:00,23.7,16.0,30.09,WSW,248,11.5,11.5,72,0.00,-SN,,0.00,WeatherDisplay:10.37,2013-02-21 16:35:00,
2013-02-21 11:40:00,24.1,16.1,30.09,SW,225,13.0,13.0,71,0.00,-SN,,0.00,WeatherDisplay:10.37,2013-02-21 16:40:00,
2013-02-21 11:45:00,24.1,16.4,30.09,WSW,248,10.4,10.4,72,0.00,-SN,,0.00,WeatherDisplay:10.37,2013-02-21 16:45:00,
2013-02-21 11:51:00,23.5,15.5,30.10,WSW,248,13.8,13.8,71,0.00,-SN,,0.00,WeatherDisplay:10.37,2013-02-21 16:51:00,
2013-02-21 11:56:00,23.5,16.1,30.10,SW,225,11.5,11.5,73,0.00,-SN,,0.00,WeatherDisplay:10.37,2013-02-21 16:56:00,
2013-02-21 12:01:00,23.7,17.2,30.10,WSW,248,9.2,9.2,76,0.00,-SN,,0.00,WeatherDisplay:10.37,2013-02-21 17:01:00,
2013-02-21 12:06:00,23.0,16.9,30.10,WSW,248,12.7,12.7,77,0.00,-SN,,0.00,WeatherDisplay:10.37,2013-02-21 17:06:00,
2013-02-21 12:11:00,22.3,16.8,30.10,West,270,14.5,14.5,79,0.00,-SN,,0.00,WeatherDisplay:10.37,2013-02-21 17:11:00,
2013-02-21 12:16:00,21.9,16.7,30.10,West,270,16.1,16.1,80,0.00,-SN,,0.00,WeatherDisplay:10.37,2013-02-21 17:16:00,
2013-02-21 12:21:00,21.9,16.7,30.10,West,270,11.9,11.9,80,0.00,-SN,,0.00,WeatherDisplay:10.37,2013-02-21 17:21:00,
2013-02-21 12:26:00,21.9,16.4,30.10,West,270,14.5,14.5,79,0.00,-SN,,0.00,WeatherDisplay:10.37,2013-02-21 17:26:00,
2013-02-21 12:31:00,22.3,15.9,30.10,WSW,248,15.0,15.0,76,0.00,OVC,,0.00,WeatherDisplay:10.37,2013-02-21 17:31:00,
2013-02-21 12:36:00,22.6,15.9,30.10,WSW,248,10.4,10.4,75,0.00,OVC,,0.00,WeatherDisplay:10.37,2013-02-21 17:36:00,
2013-02-21 12:41:00,22.8,16.1,30.11,WSW,248,10.4,10.4,75,0.00,OVC,,0.00,WeatherDisplay:10.37,2013-02-21 17:41:00,
2013-02-21 12:46:00,23.0,16.3,30.11,West,270,9.2,9.2,75,0.00,OVC,,0.00,WeatherDisplay:10.37,2013-02-21 17:46:00,
2013-02-21 12:51:00,23.2,16.4,30.10,West,270,11.5,11.5,75,0.00,OVC,,0.00,WeatherDisplay:10.37,2013-02-21 17:51:00,
2013-02-21 12:56:00,23.2,17.1,30.10,SW,225,10.9,10.9,77,0.00,OVC,,0.00,WeatherDisplay:10.37,2013-02-21 17:56:00,
2013-02-21 13:01:00,22.8,16.4,30.10,WSW,248,13.8,13.8,76,0.00,OVC,,0.00,WeatherDisplay:10.37,2013-02-21 18:01:00,
2013-02-21 13:06:00,23.0,15.9,30.09,WSW,248,14.5,14.5,74,0.00,OVC,,0.00,WeatherDisplay:10.37,2013-02-21 18:06:00,
2013-02-21 13:11:00,23.2,16.1,30.09,West,270,13.8,13.8,74,0.00,OVC,,0.00,WeatherDisplay:10.37,2013-02-21 18:11:00,
2013-02-21 13:16:00,23.4,16.0,30.09,WSW,248,13.5,13.5,73,0.00,OVC,,0.00,WeatherDisplay:10.37,2013-02-21 18:16:00,
2013-02-21 13:21:00,22.6,15.9,30.09,West,270,13.8,13.8,75,0.00,OVC,,0.00,WeatherDisplay:10.37,2013-02-21 18:21:00,
2013-02-21 13:26:00,22.8,15.8,30.09,West,270,12.7,12.7,74,0.00,OVC,,0.00,WeatherDisplay:10.37,2013-02-21 18:26:00,
2013-02-21 13:31:00,23.0,15.0,30.09,SW,225,12.7,12.7,71,0.00,OVC,,0.00,WeatherDisplay:10.37,2013-02-21 18:31:00,
2013-02-21 13:36:00,24.6,15.9,30.09,West,270,12.7,12.7,69,0.00,OVC,,0.00,WeatherDisplay:10.37,2013-02-21 18:36:00,
2013-02-21 13:41:00,24.6,14.9,30.09,SW,225,10.4,10.4,66,0.00,OVC,,0.00,WeatherDisplay:10.37,2013-02-21 18:41:00,
2013-02-21 13:46:00,23.5,15.5,30.09,WSW,248,11.5,11.5,71,0.00,OVC,,0.00,WeatherDisplay:10.37,2013-02-21 18:46:00,
2013-02-21 13:51:00,23.9,15.9,30.09,WSW,248,12.7,12.7,71,0.00,OVC,,0.00,WeatherDisplay:10.37,2013-02-21 18:51:00,
2013-02-21 13:56:00,23.5,14.8,30.09,WNW,292,10.4,10.4,69,0.00,OVC,,0.00,WeatherDisplay:10.37,2013-02-21 18:56:00,
2013-02-21 14:01:00,23.5,14.5,30.09,West,270,10.9,10.9,68,0.00,OVC,,0.00,WeatherDisplay:10.37,2013-02-21 19:01:00,
2013-02-21 14:06:00,23.4,14.0,30.10,NNW,338,10.4,10.4,67,0.00,OVC,,0.00,WeatherDisplay:10.37,2013-02-21 19:06:00,
2013-02-21 14:11:00,23.4,14.7,30.10,SW,225,11.5,11.5,69,0.00,OVC,,0.00,WeatherDisplay:10.37,2013-02-21 19:11:00,
2013-02-21 14:16:00,22.8,15.8,30.10,NNW,338,10.4,10.4,74,0.00,OVC,,0.00,WeatherDisplay:10.37,2013-02-21 19:16:00,
2013-02-21 14:21:00,23.0,15.0,30.10,West,270,11.5,11.5,71,0.00,OVC,,0.00,WeatherDisplay:10.37,2013-02-21 19:21:00,
2013-02-21 14:26:00,23.9,15.5,30.10,NNW,338,11.5,11.5,70,0.00,OVC,,0.00,WeatherDisplay:10.37,2013-02-21 19:26:00,
2013-02-21 14:31:00,24.3,16.6,30.10,West,270,11.9,11.9,72,0.00,OVC,,0.00,WeatherDisplay:10.37,2013-02-21 19:31:00,
2013-02-21 14:36:00,24.3,16.2,30.10,West,270,9.2,9.2,71,0.00,OVC,,0.00,WeatherDisplay:10.37,2013-02-21 19:36:00,
2013-02-21 14:41:00,23.7,16.6,30.10,North,360,6.9,6.9,74,0.00,OVC,,0.00,WeatherDisplay:10.37,2013-02-21 19:41:00,
2013-02-21 14:46:00,23.9,16.8,30.10,NNW,338,5.8,5.8,74,0.00,OVC,,0.00,WeatherDisplay:10.37,2013-02-21 19:46:00,
2013-02-21 14:51:00,23.4,15.7,30.09,West,270,8.1,8.1,72,0.00,OVC,,0.00,WeatherDisplay:10.37,2013-02-21 19:51:00,
2013-02-21 14:56:00,23.4,14.7,30.09,NNW,338,8.1,8.1,69,0.00,OVC,,0.00,WeatherDisplay:10.37,2013-02-21 19:56:00,
2013-02-21 15:01:00,24.1,15.4,30.09,NNW,338,8.3,8.3,69,0.00,OVC,,0.00,WeatherDisplay:10.37,2013-02-21 20:01:00,
2013-02-21 15:06:00,23.5,13.8,30.10,SW,225,8.1,8.1,66,0.00,OVC,,0.00,WeatherDisplay:10.37,2013-02-21 20:06:00,
2013-02-21 15:11:00,23.9,14.2,30.10,West,270,10.4,10.4,66,0.00,OVC,,0.00,WeatherDisplay:10.37,2013-02-21 20:11:00,
2013-02-21 15:16:00,24.3,14.2,30.10,West,270,11.5,11.5,65,0.00,OVC,,0.00,WeatherDisplay:10.37,2013-02-21 20:16:00,
2013-02-21 15:21:00,24.1,14.7,30.10,NE,45,6.9,6.9,67,0.00,OVC,,0.00,WeatherDisplay:10.37,2013-02-21 20:21:00,
2013-02-21 15:26:00,23.9,14.2,30.10,NW,315,5.8,5.8,66,0.00,OVC,,0.00,WeatherDisplay:10.37,2013-02-21 20:26:00,
2013-02-21 15:31:00,23.9,14.2,30.10,WNW,292,5.8,5.8,66,0.00,OVC,,0.00,WeatherDisplay:10.37,2013-02-21 20:31:00,
2013-02-21 15:36:00,24.3,14.6,30.10,West,270,8.3,8.3,66,0.00,OVC,,0.00,WeatherDisplay:10.37,2013-02-21 20:36:00,
2013-02-21 15:41:00,24.1,14.4,30.09,NE,45,6.9,6.9,66,0.00,OVC,,0.00,WeatherDisplay:10.37,2013-02-21 20:41:00,
2013-02-21 15:46:00,23.9,14.2,30.09,WSW,248,6.8,6.8,66,0.00,OVC,,0.00,WeatherDisplay:10.37,2013-02-21 20:46:00,
2013-02-21 15:51:00,23.9,14.2,30.08,West,270,9.2,9.2,66,0.00,OVC,,0.00,WeatherDisplay:10.37,2013-02-21 20:51:00,
2013-02-21 15:56:00,23.5,13.8,30.08,North,360,6.3,6.3,66,0.00,OVC,,0.00,WeatherDisplay:10.37,2013-02-21 20:56:00,
2013-02-21 16:01:00,24.1,14.0,30.08,WSW,248,8.1,8.1,65,0.00,OVC,,0.00,WeatherDisplay:10.37,2013-02-21 21:01:00,
2013-02-21 16:06:00,24.1,14.0,30.09,WSW,248,8.1,8.1,65,0.00,OVC,,0.00,WeatherDisplay:10.37,2013-02-21 21:06:00,
2013-02-21 16:11:00,24.3,14.6,30.09,WSW,248,6.8,6.8,66,0.00,OVC,,0.00,WeatherDisplay:10.37,2013-02-21 21:11:00,
2013-02-21 16:16:00,24.8,14.7,30.08,WNW,292,6.3,6.3,65,0.00,OVC,,0.00,WeatherDisplay:10.37,2013-02-21 21:16:00,
2013-02-21 16:21:00,24.8,14.7,30.08,WSW,248,8.1,8.1,65,0.00,OVC,,0.00,WeatherDisplay:10.37,2013-02-21 21:21:00,
2013-02-21 16:26:00,24.6,14.9,30.08,North,360,5.8,5.8,66,0.00,OVC,,0.00,WeatherDisplay:10.37,2013-02-21 21:26:00,
2013-02-21 16:31:00,23.9,14.2,30.08,ESE,112,4.6,4.6,66,0.00,SCT,,0.00,WeatherDisplay:10.37,2013-02-21 21:31:00,
2013-02-21 16:36:00,25.0,14.9,30.08,West,270,3.5,3.5,65,0.00,SCT,,0.00,WeatherDisplay:10.37,2013-02-21 21:36:00,
2013-02-21 16:41:00,25.5,14.6,30.09,SW,225,6.9,6.9,63,0.00,SCT,,0.00,WeatherDisplay:10.37,2013-02-21 21:41:00,
2013-02-21 16:46:00,26.1,14.8,30.09,NW,315,5.8,5.8,62,0.00,SCT,,0.00,WeatherDisplay:10.37,2013-02-21 21:46:00,
2013-02-21 16:51:00,25.0,14.5,30.11,NNW,338,6.9,6.9,64,0.00,SCT,,0.00,WeatherDisplay:10.37,2013-02-21 21:51:00,
2013-02-21 16:56:00,25.2,14.7,30.11,NNW,338,6.9,6.9,64,0.00,SCT,,0.00,WeatherDisplay:10.37,2013-02-21 21:56:00,
2013-02-21 17:01:00,25.0,14.5,30.11,West,270,5.8,5.8,64,0.00,SCT,,0.00,WeatherDisplay:10.37,2013-02-21 22:01:00,
2013-02-21 17:06:00,25.3,14.5,30.10,West,270,3.5,3.5,63,0.00,SCT,,0.00,WeatherDisplay:10.37,2013-02-21 22:06:00,
2013-02-21 17:11:00,24.4,14.3,30.10,WNW,292,5.8,5.8,65,0.00,SCT,,0.00,WeatherDisplay:10.37,2013-02-21 22:11:00,
2013-02-21 17:16:00,23.7,14.0,30.11,East,90,4.6,4.6,66,0.00,SCT,,0.00,WeatherDisplay:10.37,2013-02-21 22:16:00,
2013-02-21 17:21:00,23.7,14.0,30.11,East,90,3.7,3.7,66,0.00,SCT,,0.00,WeatherDisplay:10.37,2013-02-21 22:21:00,
2013-02-21 17:26:00,23.9,14.9,30.11,East,90,2.7,2.7,68,0.00,SCT,,0.00,WeatherDisplay:10.37,2013-02-21 22:26:00,
2013-02-21 17:31:00,23.7,14.3,30.11,ESE,112,2.3,2.3,67,0.00,CLR,,0.00,WeatherDisplay:10.37,2013-02-21 22:31:00,
2013-02-21 17:36:00,24.1,14.7,30.11,ESE,112,2.7,2.7,67,0.00,CLR,,0.00,WeatherDisplay:10.37,2013-02-21 22:36:00,
2013-02-21 17:41:00,23.9,14.2,30.12,ESE,112,3.5,3.5,66,0.00,CLR,,0.00,WeatherDisplay:10.37,2013-02-21 22:41:00,
2013-02-21 17:46:00,23.7,14.0,30.12,ESE,112,2.3,2.5,66,0.00,CLR,,0.00,WeatherDisplay:10.37,2013-02-21 22:46:00,
2013-02-21 17:51:00,23.4,14.4,30.13,ESE,112,2.7,2.7,68,0.00,CLR,,0.00,WeatherDisplay:10.37,2013-02-21 22:51:00,
2013-02-21 17:56:00,23.2,14.2,30.13,ESE,112,2.3,2.3,68,0.00,CLR,,0.00,WeatherDisplay:10.37,2013-02-21 22:56:00,
2013-02-21 18:01:00,22.8,13.8,30.13,ESE,112,3.5,3.5,68,0.00,SCT,,0.00,WeatherDisplay:10.37,2013-02-21 23:01:00,
2013-02-21 18:06:00,22.8,14.1,30.13,ESE,112,3.5,3.5,69,0.00,SCT,,0.00,WeatherDisplay:10.37,2013-02-21 23:06:00,
2013-02-21 18:11:00,22.6,14.0,30.13,ESE,112,2.3,2.3,69,0.00,SCT,,0.00,WeatherDisplay:10.37,2013-02-21 23:11:00,
2013-02-21 18:16:00,22.5,13.9,30.13,East,90,2.3,2.3,69,0.00,SCT,,0.00,WeatherDisplay:10.37,2013-02-21 23:16:00,
2013-02-21 18:21:00,22.5,14.2,30.13,East,90,2.3,2.3,70,0.00,SCT,,0.00,WeatherDisplay:10.37,2013-02-21 23:21:00,
2013-02-21 18:26:00,22.8,14.1,30.13,ESE,112,2.3,2.3,69,0.00,SCT,,0.00,WeatherDisplay:10.37,2013-02-21 23:26:00,
2013-02-21 18:31:00,22.6,14.0,30.13,ESE,112,2.7,2.7,69,0.00,CLR,,0.00,WeatherDisplay:10.37,2013-02-21 23:31:00,
2013-02-21 18:36:00,22.5,13.9,30.13,ESE,112,0.0,0.0,69,0.00,CLR,,0.00,WeatherDisplay:10.37,2013-02-21 23:36:00,
2013-02-21 18:41:00,21.9,13.6,30.14,ESE,112,0.0,0.0,70,0.00,CLR,,0.00,WeatherDisplay:10.37,2013-02-21 23:41:00,
2013-02-21 18:46:00,21.6,13.6,30.14,ESE,112,0.0,0.0,71,0.00,CLR,,0.00,WeatherDisplay:10.37,2013-02-21 23:46:00,
2013-02-21 18:51:00,21.4,15.0,30.15,ESE,112,0.0,0.0,76,0.00,CLR,,0.00,WeatherDisplay:10.37,2013-02-21 23:51:00,
2013-02-21 18:56:00,21.0,14.6,30.15,ESE,112,0.0,0.0,76,0.00,CLR,,0.00,WeatherDisplay:10.37,2013-02-21 23:56:00,
2013-02-21 19:01:00,21.0,14.0,30.14,ESE,112,0.0,0.0,74,0.00,CLR,,0.00,WeatherDisplay:10.37,2013-02-22 00:01:00,
2013-02-21 19:06:00,22.1,14.1,30.14,ESE,112,2.3,2.3,71,0.00,CLR,,0.00,WeatherDisplay:10.37,2013-02-22 00:06:00,
2013-02-21 19:11:00,22.3,14.0,30.14,ESE,112,2.2,2.2,70,0.00,CLR,,0.00,WeatherDisplay:10.37,2013-02-22 00:11:00,
2013-02-21 19:16:00,22.1,13.8,30.14,ESE,112,1.7,1.7,70,0.00,CLR,,0.00,WeatherDisplay:10.37,2013-02-22 00:16:00,
2013-02-21 19:21:00,22.5,14.2,30.14,ESE,112,3.5,3.5,70,0.00,CLR,,0.00,WeatherDisplay:10.37,2013-02-22 00:21:00,
2013-02-21 19:26:00,21.7,14.1,30.14,ESE,112,2.7,2.7,72,0.00,CLR,,0.00,WeatherDisplay:10.37,2013-02-22 00:26:00,
2013-02-21 19:31:00,21.7,14.1,30.14,ESE,112,3.5,3.5,72,0.00,CLR,,0.00,WeatherDisplay:10.37,2013-02-22 00:31:00,
2013-02-21 19:36:00,21.7,14.1,30.14,ESE,112,4.6,4.6,72,0.00,CLR,,0.00,WeatherDisplay:10.37,2013-02-22 00:36:00,
2013-02-21 19:41:00,21.6,14.3,30.14,ESE,112,2.7,2.7,73,0.00,CLR,,0.00,WeatherDisplay:10.37,2013-02-22 00:41:00,
2013-02-21 19:46:00,21.6,14.6,30.14,ESE,112,3.5,3.5,74,0.00,CLR,,0.00,WeatherDisplay:10.37,2013-02-22 00:46:00,
2013-02-21 19:51:00,21.6,14.6,30.15,ESE,112,2.3,2.3,74,0.00,CLR,,0.00,WeatherDisplay:10.37,2013-02-22 00:51:00,
2013-02-21 19:56:00,21.0,14.0,30.15,ESE,112,0.0,0.0,74,0.00,CLR,,0.00,WeatherDisplay:10.37,2013-02-22 00:56:00,
2013-02-21 20:01:00,20.3,14.5,30.15,ESE,112,1.1,1.3,78,0.00,CLR,,0.00,WeatherDisplay:10.37,2013-02-22 01:01:00,
2013-02-21 20:06:00,20.1,14.0,30.15,ESE,112,0.0,0.0,77,0.00,CLR,,0.00,WeatherDisplay:10.37,2013-02-22 01:06:00,
2013-02-21 20:11:00,19.8,13.8,30.15,ESE,112,0.0,0.0,77,0.00,CLR,,0.00,WeatherDisplay:10.37,2013-02-22 01:11:00,
2013-02-21 20:16:00,20.8,14.4,30.15,ESE,112,2.2,2.2,76,0.00,CLR,,0.00,WeatherDisplay:10.37,2013-02-22 01:16:00,
2013-02-21 20:21:00,20.8,14.4,30.15,ESE,112,2.3,2.3,76,0.00,CLR,,0.00,WeatherDisplay:10.37,2013-02-22 01:21:00,
2013-02-21 20:26:00,20.7,14.6,30.14,ESE,112,2.7,2.7,77,0.00,CLR,,0.00,WeatherDisplay:10.37,2013-02-22 01:26:00,
2013-02-21 20:31:00,21.2,14.8,30.14,ESE,112,3.5,3.5,76,0.00,CLR,,0.00,WeatherDisplay:10.37,2013-02-22 01:31:00,
2013-02-21 20:36:00,21.4,14.7,30.14,ESE,112,4.6,4.6,75,0.00,CLR,,0.00,WeatherDisplay:10.37,2013-02-22 01:36:00,
2013-02-21 20:41:00,21.4,14.7,30.14,ESE,112,2.7,2.7,75,0.00,CLR,,0.00,WeatherDisplay:10.37,2013-02-22 01:41:00,
2013-02-21 20:46:00,20.1,14.3,30.14,ESE,112,3.5,3.5,78,0.00,CLR,,0.00,WeatherDisplay:10.37,2013-02-22 01:46:00,
2013-02-21 20:51:00,20.1,14.6,30.13,ESE,112,3.5,3.5,79,0.00,CLR,,0.00,WeatherDisplay:10.37,2013-02-22 01:51:00,
2013-02-21 20:56:00,19.9,14.4,30.13,ESE,112,3.5,3.5,79,0.00,CLR,,0.00,WeatherDisplay:10.37,2013-02-22 01:56:00,
2013-02-21 21:01:00,20.1,14.6,30.12,ESE,112,5.8,5.8,79,0.00,CLR,,0.00,WeatherDisplay:10.37,2013-02-22 02:01:00,
2013-02-21 21:06:00,20.1,14.6,30.12,ESE,112,5.8,5.8,79,0.00,CLR,,0.00,WeatherDisplay:10.37,2013-02-22 02:06:00,
2013-02-21 21:11:00,20.1,14.6,30.12,ESE,112,4.7,4.7,79,0.00,CLR,,0.00,WeatherDisplay:10.37,2013-02-22 02:11:00,
2013-02-21 21:16:00,19.8,14.3,30.11,ESE,112,5.8,5.8,79,0.00,CLR,,0.00,WeatherDisplay:10.37,2013-02-22 02:16:00,
2013-02-21 21:21:00,19.8,14.6,30.11,ESE,112,6.3,6.3,80,0.00,CLR,,0.00,WeatherDisplay:10.37,2013-02-22 02:21:00,
2013-02-21 21:26:00,19.6,14.7,30.10,ESE,112,5.8,5.8,81,0.00,CLR,,0.00,WeatherDisplay:10.37,2013-02-22 02:26:00,
2013-02-21 21:31:00,19.4,14.5,30.10,ESE,112,5.8,5.8,81,0.00,CLR,,0.00,WeatherDisplay:10.37,2013-02-22 02:31:00,
2013-02-21 21:36:00,19.4,14.5,30.10,ESE,112,5.8,5.8,81,0.00,CLR,,0.00,WeatherDisplay:10.37,2013-02-22 02:36:00,
2013-02-21 21:41:00,19.2,14.6,30.10,ESE,112,5.8,5.8,82,0.00,CLR,,0.00,WeatherDisplay:10.37,2013-02-22 02:41:00,
2013-02-21 21:46:00,19.2,14.6,30.10,ESE,112,4.6,4.6,82,0.00,CLR,,0.00,WeatherDisplay:10.37,2013-02-22 02:46:00,
2013-02-21 21:51:00,19.2,14.3,30.10,ESE,112,4.6,4.6,81,0.00,CLR,,0.00,WeatherDisplay:10.37,2013-02-22 02:51:00,
2013-02-21 21:56:00,19.6,14.4,30.10,ESE,112,4.6,4.6,80,0.00,CLR,,0.00,WeatherDisplay:10.37,2013-02-22 02:56:00,
2013-02-21 22:01:00,19.6,14.4,30.10,ESE,112,4.7,4.7,80,0.00,CLR,,0.00,WeatherDisplay:10.37,2013-02-22 03:01:00,
2013-02-21 22:06:00,19.6,14.1,30.10,ESE,112,6.9,6.9,79,0.00,CLR,,0.00,WeatherDisplay:10.37,2013-02-22 03:06:00,
2013-02-21 22:11:00,19.6,14.1,30.10,ESE,112,6.9,6.9,79,0.00,CLR,,0.00,WeatherDisplay:10.37,2013-02-22 03:11:00,
2013-02-21 22:16:00,19.6,14.1,30.09,ESE,112,6.9,6.9,79,0.00,CLR,,0.00,WeatherDisplay:10.37,2013-02-22 03:16:00,
2013-02-21 22:21:00,19.6,14.1,30.09,ESE,112,5.8,5.8,79,0.00,CLR,,0.00,WeatherDisplay:10.37,2013-02-22 03:21:00,
2013-02-21 22:26:00,19.6,14.1,30.09,ESE,112,4.6,4.6,79,0.00,CLR,,0.00,WeatherDisplay:10.37,2013-02-22 03:26:00,
2013-02-21 22:31:00,19.4,14.2,30.09,ESE,112,3.5,3.5,80,0.00,CLR,,0.00,WeatherDisplay:10.37,2013-02-22 03:31:00,
2013-02-21 22:36:00,19.6,14.4,30.09,ESE,112,5.8,5.8,80,0.00,CLR,,0.00,WeatherDisplay:10.37,2013-02-22 03:36:00,
2013-02-21 22:41:00,19.6,14.4,30.09,ESE,112,4.6,4.6,80,0.00,CLR,,0.00,WeatherDisplay:10.37,2013-02-22 03:41:00,
2013-02-21 22:46:00,19.4,14.2,30.09,ESE,112,8.1,8.1,80,0.00,CLR,,0.00,WeatherDisplay:10.37,2013-02-22 03:46:00,
2013-02-21 22:51:00,19.6,14.4,30.08,ESE,112,8.1,8.1,80,0.00,CLR,,0.00,WeatherDisplay:10.37,2013-02-22 03:51:00,
2013-02-21 22:56:00,19.6,14.4,30.08,ESE,112,4.6,4.6,80,0.00,CLR,,0.00,WeatherDisplay:10.37,2013-02-22 03:56:00,
2013-02-21 23:01:00,19.8,14.6,30.07,ESE,112,7.8,7.8,80,0.00,CLR,,0.00,WeatherDisplay:10.37,2013-02-22 04:01:00,
2013-02-21 23:06:00,19.8,14.6,30.07,ESE,112,8.3,8.3,80,0.00,CLR,,0.00,WeatherDisplay:10.37,2013-02-22 04:06:00,
2013-02-21 23:11:00,19.9,14.4,30.07,East,90,10.4,10.4,79,0.00,CLR,,0.00,WeatherDisplay:10.37,2013-02-22 04:11:00,
2013-02-21 23:16:00,20.1,14.6,30.07,ESE,112,9.4,9.4,79,0.00,CLR,,0.00,WeatherDisplay:10.37,2013-02-22 04:16:00,
2013-02-21 23:21:00,20.1,14.3,30.07,ESE,112,8.1,8.1,78,0.00,CLR,,0.00,WeatherDisplay:10.37,2013-02-22 04:21:00,
2013-02-21 23:26:00,20.1,14.3,30.06,ESE,112,9.4,9.4,78,0.00,CLR,,0.00,WeatherDisplay:10.37,2013-02-22 04:26:00,
2013-02-21 23:31:00,20.3,14.5,30.06,ESE,112,9.2,9.2,78,0.00,CLR,,0.00,WeatherDisplay:10.37,2013-02-22 04:31:00,
2013-02-21 23:36:00,20.3,14.5,30.06,ESE,112,8.1,8.1,78,0.00,CLR,,0.00,WeatherDisplay:10.37,2013-02-22 04:36:00,
2013-02-21 23:41:00,20.3,14.2,30.07,ESE,112,5.3,5.3,77,0.00,CLR,,0.00,WeatherDisplay:10.37,2013-02-22 04:41:00,
2013-02-21 23:46:00,20.5,14.4,30.07,ESE,112,6.3,6.3,77,0.00,CLR,,0.00,WeatherDisplay:10.37,2013-02-22 04:46:00,
2013-02-21 23:51:00,20.5,14.4,30.06,ESE,112,9.2,9.2,77,0.00,CLR,,0.00,WeatherDisplay:10.37,2013-02-22 04:51:00,
2013-02-21 23:56:00,20.5,14.7,30.06,ESE,112,6.9,6.9,78,0.00,CLR,,0.00,WeatherDisplay:10.37,2013-02-22 04:56:00,